sensor_id;sensor_type;location;lat;lon;timestamp;pressure;altitude;pressure_sealevel;temperature;humidity
63691;BME280;49837;57.280;27.070;2022-08-21T00:00:55;100462.05;;;15.59;85.46
63691;BME280;49837;57.280;27.070;2022-08-21T00:01:56;100459.47;;;15.6;85.54
63691;BME280;49837;57.280;27.070;2022-08-21T00:02:59;100456.4;;;15.56;85.69
63691;BME280;49837;57.280;27.070;2022-08-21T00:03:58;100460.15;;;15.54;85.68
63691;BME280;49837;57.280;27.070;2022-08-21T00:05:02;100460.1;;;15.5;85.94
63691;BME280;49837;57.280;27.070;2022-08-21T00:06:02;100460.41;;;15.47;85.93
63691;BME280;49837;57.280;27.070;2022-08-21T00:07:03;100457.27;;;15.48;85.56
63691;BME280;49837;57.280;27.070;2022-08-21T00:08:03;100456.55;;;15.43;86.04
63691;BME280;49837;57.280;27.070;2022-08-21T00:09:05;100453.97;;;15.43;85.96
63691;BME280;49837;57.280;27.070;2022-08-21T00:10:05;100457.33;;;15.46;86.22
63691;BME280;49837;57.280;27.070;2022-08-21T00:11:05;100457.43;;;15.46;86.37
63691;BME280;49837;57.280;27.070;2022-08-21T00:12:06;100457.19;;;15.44;86.27
63691;BME280;49837;57.280;27.070;2022-08-21T00:13:06;100454.01;;;15.39;86.48
63691;BME280;49837;57.280;27.070;2022-08-21T00:14:08;100454.75;;;15.42;86.15
63691;BME280;49837;57.280;27.070;2022-08-21T00:15:09;100453.16;;;15.39;86.32
63691;BME280;49837;57.280;27.070;2022-08-21T00:16:08;100455.33;;;15.38;86.61
63691;BME280;49837;57.280;27.070;2022-08-21T00:17:08;100455.77;;;15.38;86.53
63691;BME280;49837;57.280;27.070;2022-08-21T00:18:09;100457.03;;;15.39;86.5
63691;BME280;49837;57.280;27.070;2022-08-21T00:19:09;100454.28;;;15.36;86.69
63691;BME280;49837;57.280;27.070;2022-08-21T00:20:11;100456.76;;;15.34;86.86
63691;BME280;49837;57.280;27.070;2022-08-21T00:21:12;100458.37;;;15.35;86.73
63691;BME280;49837;57.280;27.070;2022-08-21T00:22:10;100457.81;;;15.36;86.74
63691;BME280;49837;57.280;27.070;2022-08-21T00:23:11;100455.86;;;15.3;87.2
63691;BME280;49837;57.280;27.070;2022-08-21T00:24:11;100453.86;;;15.26;87.25
63691;BME280;49837;57.280;27.070;2022-08-21T00:25:13;100452.42;;;15.28;87.09
63691;BME280;49837;57.280;27.070;2022-08-21T00:26:12;100454.8;;;15.24;87.47
63691;BME280;49837;57.280;27.070;2022-08-21T00:27:13;100458.06;;;15.23;87.45
63691;BME280;49837;57.280;27.070;2022-08-21T00:28:14;100455.23;;;15.23;87.4
63691;BME280;49837;57.280;27.070;2022-08-21T00:29:14;100460.03;;;15.27;87.42
63691;BME280;49837;57.280;27.070;2022-08-21T00:30:16;100454.53;;;15.26;87.48
63691;BME280;49837;57.280;27.070;2022-08-21T00:31:15;100455.63;;;15.24;87.74
63691;BME280;49837;57.280;27.070;2022-08-21T00:33:17;100455.61;;;15.22;87.5
63691;BME280;49837;57.280;27.070;2022-08-21T00:34:17;100458.39;;;15.26;87.07
63691;BME280;49837;57.280;27.070;2022-08-21T00:35:22;100455.29;;;15.24;87.38
63691;BME280;49837;57.280;27.070;2022-08-21T00:36:20;100453.66;;;15.25;87.19
63691;BME280;49837;57.280;27.070;2022-08-21T00:37:20;100454.2;;;15.26;87.43
63691;BME280;49837;57.280;27.070;2022-08-21T00:38:21;100455.75;;;15.25;87.37
63691;BME280;49837;57.280;27.070;2022-08-21T00:39:21;100453.9;;;15.25;87.34
63691;BME280;49837;57.280;27.070;2022-08-21T00:41:25;100454.67;;;15.19;87.71
63691;BME280;49837;57.280;27.070;2022-08-21T00:42:30;100449.56;;;15.13;88.07
63691;BME280;49837;57.280;27.070;2022-08-21T00:43:32;100449.89;;;15.08;87.98
63691;BME280;49837;57.280;27.070;2022-08-21T00:44:30;100450.62;;;15.08;88.01
63691;BME280;49837;57.280;27.070;2022-08-21T00:45:31;100452.66;;;15.06;88.12
63691;BME280;49837;57.280;27.070;2022-08-21T00:46:31;100451.72;;;15.06;87.94
63691;BME280;49837;57.280;27.070;2022-08-21T00:47:32;100455.8;;;15.11;87.64
63691;BME280;49837;57.280;27.070;2022-08-21T00:48:35;100463.2;;;15.16;87.74
63691;BME280;49837;57.280;27.070;2022-08-21T00:49:33;100454.86;;;15.15;87.35
63691;BME280;49837;57.280;27.070;2022-08-21T00:50:38;100457.14;;;15.09;88.25
63691;BME280;49837;57.280;27.070;2022-08-21T00:52:40;100459.62;;;15.02;88.84
63691;BME280;49837;57.280;27.070;2022-08-21T00:53:42;100459.7;;;15.0;88.82
63691;BME280;49837;57.280;27.070;2022-08-21T00:54:43;100457.02;;;14.94;89.31
63691;BME280;49837;57.280;27.070;2022-08-21T00:55:44;100458.16;;;14.91;89.56
63691;BME280;49837;57.280;27.070;2022-08-21T00:56:44;100457.56;;;14.86;89.75
63691;BME280;49837;57.280;27.070;2022-08-21T00:57:47;100456.47;;;14.81;90.01
63691;BME280;49837;57.280;27.070;2022-08-21T00:58:48;100456.89;;;14.83;89.84
63691;BME280;49837;57.280;27.070;2022-08-21T00:59:52;100455.14;;;14.79;90.13
63691;BME280;49837;57.280;27.070;2022-08-21T01:00:51;100457.23;;;14.79;89.73
63691;BME280;49837;57.280;27.070;2022-08-21T01:01:52;100452.41;;;14.8;90.1
63691;BME280;49837;57.280;27.070;2022-08-21T01:02:52;100454.52;;;14.79;89.82
63691;BME280;49837;57.280;27.070;2022-08-21T01:03:53;100450.51;;;14.79;90.06
63691;BME280;49837;57.280;27.070;2022-08-21T01:04:53;100453.49;;;14.87;90.03
63691;BME280;49837;57.280;27.070;2022-08-21T01:05:54;100447.77;;;14.81;90.23
63691;BME280;49837;57.280;27.070;2022-08-21T01:06:54;100446.81;;;14.76;90.37
63691;BME280;49837;57.280;27.070;2022-08-21T01:07:55;100448.64;;;14.74;90.32
63691;BME280;49837;57.280;27.070;2022-08-21T01:08:55;100447.47;;;14.74;90.4
63691;BME280;49837;57.280;27.070;2022-08-21T01:09:55;100444.62;;;14.72;90.78
63691;BME280;49837;57.280;27.070;2022-08-21T01:10:56;100449.22;;;14.66;90.64
63691;BME280;49837;57.280;27.070;2022-08-21T01:11:58;100445.16;;;14.63;90.88
63691;BME280;49837;57.280;27.070;2022-08-21T01:12:58;100443.81;;;14.63;91.16
63691;BME280;49837;57.280;27.070;2022-08-21T01:13:58;100445.39;;;14.63;91.32
63691;BME280;49837;57.280;27.070;2022-08-21T01:15:04;100442.99;;;14.56;91.4
63691;BME280;49837;57.280;27.070;2022-08-21T01:16:04;100445.27;;;14.49;91.46
63691;BME280;49837;57.280;27.070;2022-08-21T01:17:04;100444.38;;;14.43;91.6
63691;BME280;49837;57.280;27.070;2022-08-21T01:18:06;100441.84;;;14.41;91.99
63691;BME280;49837;57.280;27.070;2022-08-21T01:19:04;100447.59;;;14.4;92.21
63691;BME280;49837;57.280;27.070;2022-08-21T01:20:08;100446.17;;;14.36;92.31
63691;BME280;49837;57.280;27.070;2022-08-21T01:21:16;100448.34;;;14.34;92.41
63691;BME280;49837;57.280;27.070;2022-08-21T01:22:09;100448.59;;;14.32;92.39
63691;BME280;49837;57.280;27.070;2022-08-21T01:23:09;100447.66;;;14.3;92.44
63691;BME280;49837;57.280;27.070;2022-08-21T01:24:10;100447.58;;;14.28;92.54
63691;BME280;49837;57.280;27.070;2022-08-21T01:25:12;100444.07;;;14.22;92.73
63691;BME280;49837;57.280;27.070;2022-08-21T01:26:11;100443.34;;;14.15;92.96
63691;BME280;49837;57.280;27.070;2022-08-21T01:27:11;100440.59;;;14.1;92.9
63691;BME280;49837;57.280;27.070;2022-08-21T01:28:14;100440.38;;;14.07;92.94
63691;BME280;49837;57.280;27.070;2022-08-21T01:29:26;100440.67;;;14.04;92.97
63691;BME280;49837;57.280;27.070;2022-08-21T01:30:21;100439.61;;;14.01;93.1
63691;BME280;49837;57.280;27.070;2022-08-21T01:31:22;100440.73;;;13.97;93.35
63691;BME280;49837;57.280;27.070;2022-08-21T01:32:23;100439.91;;;13.96;93.44
63691;BME280;49837;57.280;27.070;2022-08-21T01:33:24;100443.27;;;13.96;93.56
63691;BME280;49837;57.280;27.070;2022-08-21T01:34:24;100444.12;;;13.93;93.66
63691;BME280;49837;57.280;27.070;2022-08-21T01:35:24;100442.19;;;13.91;93.75
63691;BME280;49837;57.280;27.070;2022-08-21T01:36:25;100444.35;;;13.87;93.76
63691;BME280;49837;57.280;27.070;2022-08-21T01:37:25;100445.27;;;13.85;93.89
63691;BME280;49837;57.280;27.070;2022-08-21T01:38:25;100443.94;;;13.85;93.91
63691;BME280;49837;57.280;27.070;2022-08-21T01:39:25;100443.39;;;13.86;93.71
63691;BME280;49837;57.280;27.070;2022-08-21T01:40:26;100447.28;;;13.85;93.9
63691;BME280;49837;57.280;27.070;2022-08-21T01:41:26;100443.71;;;13.82;93.69
63691;BME280;49837;57.280;27.070;2022-08-21T01:42:27;100444.2;;;13.78;94.01
63691;BME280;49837;57.280;27.070;2022-08-21T01:43:27;100448.31;;;13.8;94.27
63691;BME280;49837;57.280;27.070;2022-08-21T01:44:31;100451.55;;;13.82;94.12
63691;BME280;49837;57.280;27.070;2022-08-21T01:45:31;100447.72;;;13.84;93.91
63691;BME280;49837;57.280;27.070;2022-08-21T01:46:32;100445.31;;;13.84;93.96
63691;BME280;49837;57.280;27.070;2022-08-21T01:47:32;100441.41;;;13.81;94.25
63691;BME280;49837;57.280;27.070;2022-08-21T01:48:32;100438.84;;;13.77;94.31
63691;BME280;49837;57.280;27.070;2022-08-21T01:49:34;100440.34;;;13.78;94.22
63691;BME280;49837;57.280;27.070;2022-08-21T01:50:33;100434.74;;;13.79;94.09
63691;BME280;49837;57.280;27.070;2022-08-21T01:51:34;100435.52;;;13.8;94.14
63691;BME280;49837;57.280;27.070;2022-08-21T01:52:34;100439.09;;;13.76;94.1
63691;BME280;49837;57.280;27.070;2022-08-21T01:53:36;100435.82;;;13.71;94.2
63691;BME280;49837;57.280;27.070;2022-08-21T01:54:36;100437.62;;;13.72;94.58
63691;BME280;49837;57.280;27.070;2022-08-21T01:55:35;100435.72;;;13.72;94.47
63691;BME280;49837;57.280;27.070;2022-08-21T01:56:38;100434.23;;;13.69;94.71
63691;BME280;49837;57.280;27.070;2022-08-21T01:57:37;100432.79;;;13.61;94.36
63691;BME280;49837;57.280;27.070;2022-08-21T01:58:37;100426.91;;;13.57;94.63
63691;BME280;49837;57.280;27.070;2022-08-21T01:59:37;100427.47;;;13.53;95.07
63691;BME280;49837;57.280;27.070;2022-08-21T02:00:38;100427.66;;;13.48;95.09
63691;BME280;49837;57.280;27.070;2022-08-21T02:01:39;100429.2;;;13.47;95.29
63691;BME280;49837;57.280;27.070;2022-08-21T02:02:40;100424.52;;;13.46;95.38
63691;BME280;49837;57.280;27.070;2022-08-21T02:03:40;100425.84;;;13.47;95.58
63691;BME280;49837;57.280;27.070;2022-08-21T02:04:42;100426.89;;;13.46;95.48
63691;BME280;49837;57.280;27.070;2022-08-21T02:05:41;100429.77;;;13.47;95.48
63691;BME280;49837;57.280;27.070;2022-08-21T02:06:41;100429.06;;;13.48;95.35
63691;BME280;49837;57.280;27.070;2022-08-21T02:07:46;100423.73;;;13.5;95.11
63691;BME280;49837;57.280;27.070;2022-08-21T02:08:45;100425.67;;;13.49;95.27
63691;BME280;49837;57.280;27.070;2022-08-21T02:09:44;100423.13;;;13.48;95.05
63691;BME280;49837;57.280;27.070;2022-08-21T02:10:45;100425.18;;;13.47;95.12
63691;BME280;49837;57.280;27.070;2022-08-21T02:11:45;100423.53;;;13.41;94.99
63691;BME280;49837;57.280;27.070;2022-08-21T02:12:46;100422.65;;;13.35;95.14
63691;BME280;49837;57.280;27.070;2022-08-21T02:13:46;100422.19;;;13.32;95.0
63691;BME280;49837;57.280;27.070;2022-08-21T02:14:46;100425.2;;;13.34;95.14
63691;BME280;49837;57.280;27.070;2022-08-21T02:15:47;100424.48;;;13.35;95.5
63691;BME280;49837;57.280;27.070;2022-08-21T02:16:47;100426.3;;;13.34;95.73
63691;BME280;49837;57.280;27.070;2022-08-21T02:17:56;100425.92;;;13.37;95.75
63691;BME280;49837;57.280;27.070;2022-08-21T02:18:49;100426.47;;;13.36;95.46
63691;BME280;49837;57.280;27.070;2022-08-21T02:19:49;100427.14;;;13.36;95.74
63691;BME280;49837;57.280;27.070;2022-08-21T02:20:50;100427.17;;;13.35;95.84
63691;BME280;49837;57.280;27.070;2022-08-21T02:21:52;100426.64;;;13.34;95.97
63691;BME280;49837;57.280;27.070;2022-08-21T02:22:53;100432.62;;;13.31;95.58
63691;BME280;49837;57.280;27.070;2022-08-21T02:23:53;100430.48;;;13.3;95.46
63691;BME280;49837;57.280;27.070;2022-08-21T02:24:53;100434.32;;;13.32;95.89
63691;BME280;49837;57.280;27.070;2022-08-21T02:26:02;100435.66;;;13.35;96.06
63691;BME280;49837;57.280;27.070;2022-08-21T02:26:55;100433.8;;;13.37;96.03
63691;BME280;49837;57.280;27.070;2022-08-21T02:27:56;100433.16;;;13.38;95.73
63691;BME280;49837;57.280;27.070;2022-08-21T02:28:56;100434.43;;;13.38;95.48
63691;BME280;49837;57.280;27.070;2022-08-21T02:29:57;100435.33;;;13.39;95.15
63691;BME280;49837;57.280;27.070;2022-08-21T02:30:57;100438.02;;;13.39;95.43
63691;BME280;49837;57.280;27.070;2022-08-21T02:31:58;100434.02;;;13.34;95.45
63691;BME280;49837;57.280;27.070;2022-08-21T02:32:58;100435.12;;;13.33;94.72
63691;BME280;49837;57.280;27.070;2022-08-21T02:33:58;100432.8;;;13.28;94.67
63691;BME280;49837;57.280;27.070;2022-08-21T02:34:59;100435.73;;;13.3;94.81
63691;BME280;49837;57.280;27.070;2022-08-21T02:35:59;100435.05;;;13.23;95.45
63691;BME280;49837;57.280;27.070;2022-08-21T02:37:00;100437.8;;;13.22;95.93
63691;BME280;49837;57.280;27.070;2022-08-21T02:38:04;100446.34;;;13.24;95.62
63691;BME280;49837;57.280;27.070;2022-08-21T02:39:02;100442.17;;;13.3;95.88
63691;BME280;49837;57.280;27.070;2022-08-21T02:40:03;100438.67;;;13.35;95.72
63691;BME280;49837;57.280;27.070;2022-08-21T02:41:04;100444.48;;;13.38;95.58
63691;BME280;49837;57.280;27.070;2022-08-21T02:42:03;100440.55;;;13.41;95.89
63691;BME280;49837;57.280;27.070;2022-08-21T02:43:05;100443.84;;;13.37;95.89
63691;BME280;49837;57.280;27.070;2022-08-21T02:44:04;100444.81;;;13.32;95.33
63691;BME280;49837;57.280;27.070;2022-08-21T02:45:05;100438.72;;;13.28;95.01
63691;BME280;49837;57.280;27.070;2022-08-21T02:46:06;100439.56;;;13.28;94.8
63691;BME280;49837;57.280;27.070;2022-08-21T02:47:05;100437.28;;;13.27;95.21
63691;BME280;49837;57.280;27.070;2022-08-21T02:48:08;100437.7;;;13.22;95.58
63691;BME280;49837;57.280;27.070;2022-08-21T02:49:06;100435.45;;;13.24;95.47
63691;BME280;49837;57.280;27.070;2022-08-21T02:50:07;100435.89;;;13.24;96.02
63691;BME280;49837;57.280;27.070;2022-08-21T02:51:13;100436.65;;;13.28;95.92
63691;BME280;49837;57.280;27.070;2022-08-21T02:52:11;100437.88;;;13.29;95.78
63691;BME280;49837;57.280;27.070;2022-08-21T02:53:13;100434.8;;;13.28;95.8
63691;BME280;49837;57.280;27.070;2022-08-21T02:54:12;100435.52;;;13.27;96.4
63691;BME280;49837;57.280;27.070;2022-08-21T02:55:12;100440.95;;;13.25;96.46
63691;BME280;49837;57.280;27.070;2022-08-21T02:56:15;100438.42;;;13.3;96.44
63691;BME280;49837;57.280;27.070;2022-08-21T02:57:13;100439.55;;;13.31;96.77
63691;BME280;49837;57.280;27.070;2022-08-21T02:58:15;100436.0;;;13.3;96.88
63691;BME280;49837;57.280;27.070;2022-08-21T02:59:14;100436.05;;;13.28;96.99
63691;BME280;49837;57.280;27.070;2022-08-21T03:00:15;100437.45;;;13.44;97.39
63691;BME280;49837;57.280;27.070;2022-08-21T03:01:15;100438.09;;;13.37;96.14
63691;BME280;49837;57.280;27.070;2022-08-21T03:02:15;100439.56;;;13.37;95.63
63691;BME280;49837;57.280;27.070;2022-08-21T03:03:16;100440.34;;;13.37;95.77
63691;BME280;49837;57.280;27.070;2022-08-21T03:04:16;100437.69;;;13.36;95.96
63691;BME280;49837;57.280;27.070;2022-08-21T03:05:17;100436.2;;;13.38;96.17
63691;BME280;49837;57.280;27.070;2022-08-21T03:06:18;100439.45;;;13.38;96.36
63691;BME280;49837;57.280;27.070;2022-08-21T03:07:18;100437.19;;;13.36;96.81
63691;BME280;49837;57.280;27.070;2022-08-21T03:08:20;100437.54;;;13.41;96.09
63691;BME280;49837;57.280;27.070;2022-08-21T03:09:22;100440.51;;;13.44;96.05
63691;BME280;49837;57.280;27.070;2022-08-21T03:10:23;100441.61;;;13.45;95.6
63691;BME280;49837;57.280;27.070;2022-08-21T03:11:23;100440.3;;;13.45;95.31
63691;BME280;49837;57.280;27.070;2022-08-21T03:12:24;100439.32;;;13.39;95.17
63691;BME280;49837;57.280;27.070;2022-08-21T03:13:26;100441.94;;;13.37;95.28
63691;BME280;49837;57.280;27.070;2022-08-21T03:14:26;100440.97;;;13.38;95.1
63691;BME280;49837;57.280;27.070;2022-08-21T03:15:27;100441.23;;;13.38;95.57
63691;BME280;49837;57.280;27.070;2022-08-21T03:16:27;100441.08;;;13.42;95.43
63691;BME280;49837;57.280;27.070;2022-08-21T03:17:31;100441.56;;;13.48;95.29
63691;BME280;49837;57.280;27.070;2022-08-21T03:18:31;100441.09;;;13.47;95.47
63691;BME280;49837;57.280;27.070;2022-08-21T03:19:32;100442.44;;;13.47;95.56
63691;BME280;49837;57.280;27.070;2022-08-21T03:20:33;100443.2;;;13.49;95.59
63691;BME280;49837;57.280;27.070;2022-08-21T03:21:32;100443.62;;;13.51;95.74
63691;BME280;49837;57.280;27.070;2022-08-21T03:22:33;100444.42;;;13.54;95.71
63691;BME280;49837;57.280;27.070;2022-08-21T03:23:33;100447.16;;;13.57;95.66
63691;BME280;49837;57.280;27.070;2022-08-21T03:24:34;100445.52;;;13.54;95.39
63691;BME280;49837;57.280;27.070;2022-08-21T03:25:35;100445.59;;;13.55;95.3
63691;BME280;49837;57.280;27.070;2022-08-21T03:26:37;100446.8;;;13.56;95.5
63691;BME280;49837;57.280;27.070;2022-08-21T03:27:37;100444.77;;;13.58;95.86
63691;BME280;49837;57.280;27.070;2022-08-21T03:28:38;100442.93;;;13.65;95.71
63691;BME280;49837;57.280;27.070;2022-08-21T03:29:39;100444.56;;;13.66;95.76
63691;BME280;49837;57.280;27.070;2022-08-21T03:30:40;100447.84;;;13.68;95.84
63691;BME280;49837;57.280;27.070;2022-08-21T03:31:39;100448.82;;;13.67;96.04
63691;BME280;49837;57.280;27.070;2022-08-21T03:32:40;100448.36;;;13.65;96.08
63691;BME280;49837;57.280;27.070;2022-08-21T03:33:40;100451.4;;;13.67;95.72
63691;BME280;49837;57.280;27.070;2022-08-21T03:34:40;100455.0;;;13.65;96.06
63691;BME280;49837;57.280;27.070;2022-08-21T03:35:43;100454.52;;;13.67;96.44
63691;BME280;49837;57.280;27.070;2022-08-21T03:36:41;100453.59;;;13.71;96.74
63691;BME280;49837;57.280;27.070;2022-08-21T03:37:42;100453.26;;;13.78;96.56
63691;BME280;49837;57.280;27.070;2022-08-21T03:38:42;100454.9;;;13.85;96.62
63691;BME280;49837;57.280;27.070;2022-08-21T03:39:43;100454.98;;;13.83;96.77
63691;BME280;49837;57.280;27.070;2022-08-21T03:40:43;100455.62;;;13.82;96.42
63691;BME280;49837;57.280;27.070;2022-08-21T03:41:43;100455.28;;;13.88;95.95
63691;BME280;49837;57.280;27.070;2022-08-21T03:42:45;100456.69;;;13.89;96.28
63691;BME280;49837;57.280;27.070;2022-08-21T03:43:45;100459.73;;;13.9;96.34
63691;BME280;49837;57.280;27.070;2022-08-21T03:44:45;100459.4;;;13.9;96.29
63691;BME280;49837;57.280;27.070;2022-08-21T03:45:46;100460.55;;;13.89;96.28
63691;BME280;49837;57.280;27.070;2022-08-21T03:46:46;100463.22;;;13.89;96.45
63691;BME280;49837;57.280;27.070;2022-08-21T03:47:58;100459.76;;;13.92;96.42
63691;BME280;49837;57.280;27.070;2022-08-21T03:48:51;100459.36;;;13.91;96.48
63691;BME280;49837;57.280;27.070;2022-08-21T03:49:51;100461.2;;;13.85;96.58
63691;BME280;49837;57.280;27.070;2022-08-21T03:50:52;100458.09;;;13.89;96.34
63691;BME280;49837;57.280;27.070;2022-08-21T03:51:52;100462.97;;;13.87;96.56
63691;BME280;49837;57.280;27.070;2022-08-21T03:52:56;100463.52;;;13.9;96.33
63691;BME280;49837;57.280;27.070;2022-08-21T03:53:56;100462.4;;;13.93;96.46
63691;BME280;49837;57.280;27.070;2022-08-21T03:54:56;100463.22;;;13.95;96.2
63691;BME280;49837;57.280;27.070;2022-08-21T03:55:57;100464.28;;;13.99;96.12
63691;BME280;49837;57.280;27.070;2022-08-21T03:56:57;100463.8;;;14.0;96.41
63691;BME280;49837;57.280;27.070;2022-08-21T03:57:58;100461.12;;;13.98;96.73
63691;BME280;49837;57.280;27.070;2022-08-21T03:59:02;100462.34;;;14.03;96.6
63691;BME280;49837;57.280;27.070;2022-08-21T04:00:03;100465.78;;;14.04;96.43
63691;BME280;49837;57.280;27.070;2022-08-21T04:01:03;100463.07;;;14.1;96.1
63691;BME280;49837;57.280;27.070;2022-08-21T04:02:05;100461.89;;;14.1;96.22
63691;BME280;49837;57.280;27.070;2022-08-21T04:03:04;100462.25;;;14.12;96.25
63691;BME280;49837;57.280;27.070;2022-08-21T04:04:05;100461.59;;;14.11;96.21
63691;BME280;49837;57.280;27.070;2022-08-21T04:05:06;100460.12;;;14.08;96.27
63691;BME280;49837;57.280;27.070;2022-08-21T04:06:06;100467.11;;;14.07;96.08
63691;BME280;49837;57.280;27.070;2022-08-21T04:07:05;100464.17;;;14.16;96.11
63691;BME280;49837;57.280;27.070;2022-08-21T04:08:06;100462.16;;;14.2;95.86
63691;BME280;49837;57.280;27.070;2022-08-21T04:09:06;100465.78;;;14.22;95.74
63691;BME280;49837;57.280;27.070;2022-08-21T04:10:07;100463.83;;;14.26;95.57
63691;BME280;49837;57.280;27.070;2022-08-21T04:11:07;100463.19;;;14.36;94.93
63691;BME280;49837;57.280;27.070;2022-08-21T04:12:08;100467.2;;;14.39;94.74
63691;BME280;49837;57.280;27.070;2022-08-21T04:13:08;100468.67;;;14.4;94.78
63691;BME280;49837;57.280;27.070;2022-08-21T04:14:09;100467.79;;;14.41;94.85
63691;BME280;49837;57.280;27.070;2022-08-21T04:15:09;100471.29;;;14.39;94.85
63691;BME280;49837;57.280;27.070;2022-08-21T04:16:10;100467.05;;;14.4;94.96
63691;BME280;49837;57.280;27.070;2022-08-21T04:17:10;100465.59;;;14.47;94.9
63691;BME280;49837;57.280;27.070;2022-08-21T04:18:11;100466.29;;;14.48;94.82
63691;BME280;49837;57.280;27.070;2022-08-21T04:19:12;100461.81;;;14.46;94.72
63691;BME280;49837;57.280;27.070;2022-08-21T04:20:11;100461.88;;;14.54;94.46
63691;BME280;49837;57.280;27.070;2022-08-21T04:21:12;100462.52;;;14.53;94.39
63691;BME280;49837;57.280;27.070;2022-08-21T04:22:12;100459.38;;;14.56;94.19
63691;BME280;49837;57.280;27.070;2022-08-21T04:23:12;100460.47;;;14.57;94.2
63691;BME280;49837;57.280;27.070;2022-08-21T04:24:15;100462.97;;;14.56;94.02
63691;BME280;49837;57.280;27.070;2022-08-21T04:25:16;100460.94;;;14.62;93.94
63691;BME280;49837;57.280;27.070;2022-08-21T04:26:16;100461.05;;;14.62;93.84
63691;BME280;49837;57.280;27.070;2022-08-21T04:27:17;100460.84;;;14.57;93.94
63691;BME280;49837;57.280;27.070;2022-08-21T04:28:17;100460.83;;;14.63;93.77
63691;BME280;49837;57.280;27.070;2022-08-21T04:29:18;100462.02;;;14.65;93.56
63691;BME280;49837;57.280;27.070;2022-08-21T04:30:19;100462.16;;;14.57;93.74
63691;BME280;49837;57.280;27.070;2022-08-21T04:31:18;100464.35;;;14.59;93.97
63691;BME280;49837;57.280;27.070;2022-08-21T04:32:23;100462.5;;;14.63;93.8
63691;BME280;49837;57.280;27.070;2022-08-21T04:33:22;100462.75;;;14.7;93.57
63691;BME280;49837;57.280;27.070;2022-08-21T04:34:22;100460.66;;;14.74;93.52
63691;BME280;49837;57.280;27.070;2022-08-21T04:35:24;100458.25;;;14.73;93.2
63691;BME280;49837;57.280;27.070;2022-08-21T04:36:23;100463.94;;;14.8;93.06
63691;BME280;49837;57.280;27.070;2022-08-21T04:37:23;100466.55;;;14.81;93.06
63691;BME280;49837;57.280;27.070;2022-08-21T04:38:25;100463.58;;;14.83;92.87
63691;BME280;49837;57.280;27.070;2022-08-21T04:39:29;100459.76;;;14.85;92.76
63691;BME280;49837;57.280;27.070;2022-08-21T04:40:29;100466.23;;;14.93;92.61
63691;BME280;49837;57.280;27.070;2022-08-21T04:41:30;100459.35;;;15.02;92.24
63691;BME280;49837;57.280;27.070;2022-08-21T04:42:30;100462.12;;;15.1;92.04
63691;BME280;49837;57.280;27.070;2022-08-21T04:43:31;100463.14;;;15.1;91.7
63691;BME280;49837;57.280;27.070;2022-08-21T04:44:31;100461.06;;;15.15;91.66
63691;BME280;49837;57.280;27.070;2022-08-21T04:45:35;100459.9;;;15.21;91.46
63691;BME280;49837;57.280;27.070;2022-08-21T04:46:33;100461.05;;;15.23;91.21
63691;BME280;49837;57.280;27.070;2022-08-21T04:47:33;100459.91;;;15.26;91.02
63691;BME280;49837;57.280;27.070;2022-08-21T04:48:33;100462.91;;;15.35;90.84
63691;BME280;49837;57.280;27.070;2022-08-21T04:49:33;100458.41;;;15.28;90.55
63691;BME280;49837;57.280;27.070;2022-08-21T04:51:39;100460.47;;;15.27;90.76
63691;BME280;49837;57.280;27.070;2022-08-21T04:52:39;100458.26;;;15.23;90.71
63691;BME280;49837;57.280;27.070;2022-08-21T04:54:45;100459.42;;;15.28;90.57
63691;BME280;49837;57.280;27.070;2022-08-21T04:55:49;100462.7;;;15.37;90.57
63691;BME280;49837;57.280;27.070;2022-08-21T04:57:55;100461.16;;;15.49;89.67
63691;BME280;49837;57.280;27.070;2022-08-21T04:58:57;100465.64;;;15.45;89.75
63691;BME280;49837;57.280;27.070;2022-08-21T04:59:56;100465.69;;;15.49;90.01
63691;BME280;49837;57.280;27.070;2022-08-21T05:00:57;100469.2;;;15.42;89.72
63691;BME280;49837;57.280;27.070;2022-08-21T05:01:57;100468.86;;;15.37;89.79
63691;BME280;49837;57.280;27.070;2022-08-21T05:02:58;100469.51;;;15.39;89.84
63691;BME280;49837;57.280;27.070;2022-08-21T05:03:59;100466.01;;;15.42;89.55
63691;BME280;49837;57.280;27.070;2022-08-21T05:04:59;100465.39;;;15.43;89.54
63691;BME280;49837;57.280;27.070;2022-08-21T05:05:59;100462.62;;;15.5;89.37
63691;BME280;49837;57.280;27.070;2022-08-21T05:07:02;100462.34;;;15.6;89.48
63691;BME280;49837;57.280;27.070;2022-08-21T05:08:02;100459.37;;;15.6;89.07
63691;BME280;49837;57.280;27.070;2022-08-21T05:09:01;100462.44;;;15.65;88.86
63691;BME280;49837;57.280;27.070;2022-08-21T05:10:03;100461.35;;;15.76;88.98
63691;BME280;49837;57.280;27.070;2022-08-21T05:11:03;100463.22;;;15.84;88.72
63691;BME280;49837;57.280;27.070;2022-08-21T05:12:03;100461.98;;;15.93;87.89
63691;BME280;49837;57.280;27.070;2022-08-21T05:13:03;100460.54;;;15.89;87.33
63691;BME280;49837;57.280;27.070;2022-08-21T05:14:04;100460.03;;;15.87;87.71
63691;BME280;49837;57.280;27.070;2022-08-21T05:15:04;100458.53;;;15.95;87.3
63691;BME280;49837;57.280;27.070;2022-08-21T05:16:05;100460.3;;;15.91;86.73
63691;BME280;49837;57.280;27.070;2022-08-21T05:17:05;100464.34;;;15.78;87.22
63691;BME280;49837;57.280;27.070;2022-08-21T05:18:06;100463.58;;;15.86;87.49
63691;BME280;49837;57.280;27.070;2022-08-21T05:19:06;100468.34;;;15.79;87.46
63691;BME280;49837;57.280;27.070;2022-08-21T05:20:08;100470.01;;;15.85;87.47
63691;BME280;49837;57.280;27.070;2022-08-21T05:21:07;100466.33;;;15.96;87.53